sensor_id;sensor_type;location;lat;lon;timestamp;P1;durP1;ratioP1;P2;durP2;ratioP2
23384;SDS011;11865;45.394;10.978;2023-04-09T00:01:54;22.88;;;15.50;;
23384;SDS011;11865;45.394;10.978;2023-04-09T00:04:22;21.75;;;15.43;;
23384;SDS011;11865;45.394;10.978;2023-04-09T00:06:49;24.98;;;16.10;;
23384;SDS011;11865;45.394;10.978;2023-04-09T00:09:17;25.48;;;16.70;;
23384;SDS011;11865;45.394;10.978;2023-04-09T00:11:44;23.13;;;16.27;;
23384;SDS011;11865;45.394;10.978;2023-04-09T00:14:12;24.30;;;16.67;;
23384;SDS011;11865;45.394;10.978;2023-04-09T00:16:39;25.27;;;16.38;;
23384;SDS011;11865;45.394;10.978;2023-04-09T00:19:06;25.48;;;16.75;;
23384;SDS011;11865;45.394;10.978;2023-04-09T00:21:34;27.85;;;16.80;;
23384;SDS011;11865;45.394;10.978;2023-04-09T00:24:02;25.83;;;17.52;;
23384;SDS011;11865;45.394;10.978;2023-04-09T00:26:29;23.98;;;17.27;;
23384;SDS011;11865;45.394;10.978;2023-04-09T00:28:57;25.10;;;17.90;;
23384;SDS011;11865;45.394;10.978;2023-04-09T00:31:24;28.75;;;18.20;;
23384;SDS011;11865;45.394;10.978;2023-04-09T00:33:52;24.65;;;16.83;;
23384;SDS011;11865;45.394;10.978;2023-04-09T00:36:19;28.95;;;17.73;;
23384;SDS011;11865;45.394;10.978;2023-04-09T00:38:48;27.48;;;17.92;;
23384;SDS011;11865;45.394;10.978;2023-04-09T00:41:17;25.60;;;17.35;;
23384;SDS011;11865;45.394;10.978;2023-04-09T00:43:44;23.52;;;17.52;;
23384;SDS011;11865;45.394;10.978;2023-04-09T00:46:12;24.88;;;17.25;;
23384;SDS011;11865;45.394;10.978;2023-04-09T00:48:40;25.90;;;16.60;;
23384;SDS011;11865;45.394;10.978;2023-04-09T00:51:07;22.83;;;15.80;;
23384;SDS011;11865;45.394;10.978;2023-04-09T00:53:35;20.80;;;15.35;;
23384;SDS011;11865;45.394;10.978;2023-04-09T00:56:02;23.55;;;16.27;;
23384;SDS011;11865;45.394;10.978;2023-04-09T00:58:32;24.42;;;16.40;;
23384;SDS011;11865;45.394;10.978;2023-04-09T01:00:59;19.77;;;14.23;;
23384;SDS011;11865;45.394;10.978;2023-04-09T01:03:27;20.30;;;13.30;;
23384;SDS011;11865;45.394;10.978;2023-04-09T01:05:59;23.33;;;14.10;;
23384;SDS011;11865;45.394;10.978;2023-04-09T01:17:16;21.33;;;14.82;;
23384;SDS011;11865;45.394;10.978;2023-04-09T01:28:04;20.50;;;14.82;;
23384;SDS011;11865;45.394;10.978;2023-04-09T01:30:34;20.35;;;13.00;;
23384;SDS011;11865;45.394;10.978;2023-04-09T01:33:02;17.23;;;12.55;;
23384;SDS011;11865;45.394;10.978;2023-04-09T01:35:31;19.85;;;13.60;;
23384;SDS011;11865;45.394;10.978;2023-04-09T01:37:59;18.20;;;12.55;;
23384;SDS011;11865;45.394;10.978;2023-04-09T01:40:27;17.65;;;12.73;;
23384;SDS011;11865;45.394;10.978;2023-04-09T01:42:55;21.65;;;12.27;;
23384;SDS011;11865;45.394;10.978;2023-04-09T01:45:23;16.92;;;11.95;;
23384;SDS011;11865;45.394;10.978;2023-04-09T01:47:51;17.65;;;10.73;;
23384;SDS011;11865;45.394;10.978;2023-04-09T01:50:20;16.67;;;11.50;;
23384;SDS011;11865;45.394;10.978;2023-04-09T01:52:48;17.17;;;10.80;;
23384;SDS011;11865;45.394;10.978;2023-04-09T01:55:16;16.02;;;11.40;;
23384;SDS011;11865;45.394;10.978;2023-04-09T01:57:43;16.67;;;11.27;;
23384;SDS011;11865;45.394;10.978;2023-04-09T02:00:11;15.60;;;11.32;;
23384;SDS011;11865;45.394;10.978;2023-04-09T02:02:45;14.85;;;11.38;;
23384;SDS011;11865;45.394;10.978;2023-04-09T02:05:20;15.48;;;10.40;;
23384;SDS011;11865;45.394;10.978;2023-04-09T02:07:53;15.75;;;11.20;;
23384;SDS011;11865;45.394;10.978;2023-04-09T02:10:23;11.18;;;8.77;;
23384;SDS011;11865;45.394;10.978;2023-04-09T02:12:53;14.20;;;10.43;;
23384;SDS011;11865;45.394;10.978;2023-04-09T02:15:22;13.88;;;10.85;;
23384;SDS011;11865;45.394;10.978;2023-04-09T02:17:50;14.27;;;10.63;;
23384;SDS011;11865;45.394;10.978;2023-04-09T02:20:18;14.70;;;10.63;;
23384;SDS011;11865;45.394;10.978;2023-04-09T02:22:45;14.82;;;11.45;;
23384;SDS011;11865;45.394;10.978;2023-04-09T02:25:13;16.80;;;10.93;;
23384;SDS011;11865;45.394;10.978;2023-04-09T02:27:41;13.07;;;10.60;;
23384;SDS011;11865;45.394;10.978;2023-04-09T02:30:08;18.92;;;10.82;;
23384;SDS011;11865;45.394;10.978;2023-04-09T02:32:36;13.90;;;10.48;;
23384;SDS011;11865;45.394;10.978;2023-04-09T02:35:04;16.48;;;11.13;;
23384;SDS011;11865;45.394;10.978;2023-04-09T02:37:31;14.95;;;11.05;;
23384;SDS011;11865;45.394;10.978;2023-04-09T02:39:59;12.48;;;10.50;;
23384;SDS011;11865;45.394;10.978;2023-04-09T02:42:26;14.50;;;11.57;;
23384;SDS011;11865;45.394;10.978;2023-04-09T02:44:54;15.18;;;10.73;;
23384;SDS011;11865;45.394;10.978;2023-04-09T02:47:22;16.88;;;11.13;;
23384;SDS011;11865;45.394;10.978;2023-04-09T02:49:49;14.73;;;10.52;;
23384;SDS011;11865;45.394;10.978;2023-04-09T02:52:17;13.30;;;9.98;;
23384;SDS011;11865;45.394;10.978;2023-04-09T02:54:46;13.77;;;10.02;;
23384;SDS011;11865;45.394;10.978;2023-04-09T02:57:13;14.65;;;9.85;;
23384;SDS011;11865;45.394;10.978;2023-04-09T02:59:40;14.70;;;9.68;;
23384;SDS011;11865;45.394;10.978;2023-04-09T03:02:08;11.32;;;8.88;;
23384;SDS011;11865;45.394;10.978;2023-04-09T03:04:35;11.57;;;9.00;;
23384;SDS011;11865;45.394;10.978;2023-04-09T03:07:03;11.57;;;8.50;;
23384;SDS011;11865;45.394;10.978;2023-04-09T03:09:30;12.93;;;9.73;;
23384;SDS011;11865;45.394;10.978;2023-04-09T03:11:58;12.02;;;8.95;;
23384;SDS011;11865;45.394;10.978;2023-04-09T03:14:25;11.60;;;8.82;;
23384;SDS011;11865;45.394;10.978;2023-04-09T03:16:53;11.20;;;8.90;;
23384;SDS011;11865;45.394;10.978;2023-04-09T03:19:20;12.32;;;8.98;;
23384;SDS011;11865;45.394;10.978;2023-04-09T03:21:48;13.13;;;9.27;;
23384;SDS011;11865;45.394;10.978;2023-04-09T03:24:20;10.70;;;8.82;;
23384;SDS011;11865;45.394;10.978;2023-04-09T03:26:48;13.40;;;9.45;;
23384;SDS011;11865;45.394;10.978;2023-04-09T03:29:16;14.65;;;8.50;;
23384;SDS011;11865;45.394;10.978;2023-04-09T03:31:44;12.40;;;8.63;;
23384;SDS011;11865;45.394;10.978;2023-04-09T03:34:11;11.57;;;8.63;;
23384;SDS011;11865;45.394;10.978;2023-04-09T03:36:38;9.30;;;7.97;;
23384;SDS011;11865;45.394;10.978;2023-04-09T03:39:14;10.50;;;8.27;;
23384;SDS011;11865;45.394;10.978;2023-04-09T03:41:43;12.20;;;8.90;;
23384;SDS011;11865;45.394;10.978;2023-04-09T03:44:14;12.18;;;8.63;;
23384;SDS011;11865;45.394;10.978;2023-04-09T03:46:56;14.13;;;8.70;;
23384;SDS011;11865;45.394;10.978;2023-04-09T03:49:24;12.63;;;8.65;;
23384;SDS011;11865;45.394;10.978;2023-04-09T03:51:55;10.88;;;8.02;;
23384;SDS011;11865;45.394;10.978;2023-04-09T03:54:28;12.82;;;8.35;;
23384;SDS011;11865;45.394;10.978;2023-04-09T03:56:57;11.57;;;8.63;;
23384;SDS011;11865;45.394;10.978;2023-04-09T03:59:24;12.25;;;8.68;;
23384;SDS011;11865;45.394;10.978;2023-04-09T04:01:52;11.52;;;8.20;;
23384;SDS011;11865;45.394;10.978;2023-04-09T04:04:20;8.75;;;7.63;;
23384;SDS011;11865;45.394;10.978;2023-04-09T04:06:53;11.32;;;8.35;;
23384;SDS011;11865;45.394;10.978;2023-04-09T04:09:28;13.63;;;7.97;;
23384;SDS011;11865;45.394;10.978;2023-04-09T04:12:11;12.88;;;8.88;;
23384;SDS011;11865;45.394;10.978;2023-04-09T04:14:59;11.65;;;8.82;;
23384;SDS011;11865;45.394;10.978;2023-04-09T04:17:35;12.52;;;8.95;;
23384;SDS011;11865;45.394;10.978;2023-04-09T04:20:05;15.23;;;9.38;;
23384;SDS011;11865;45.394;10.978;2023-04-09T04:22:42;11.10;;;9.25;;
23384;SDS011;11865;45.394;10.978;2023-04-09T04:25:09;12.48;;;9.75;;
23384;SDS011;11865;45.394;10.978;2023-04-09T04:27:40;12.40;;;9.50;;
23384;SDS011;11865;45.394;10.978;2023-04-09T04:30:08;15.52;;;11.00;;
23384;SDS011;11865;45.394;10.978;2023-04-09T04:32:49;12.55;;;10.48;;
23384;SDS011;11865;45.394;10.978;2023-04-09T04:35:17;13.25;;;10.75;;
23384;SDS011;11865;45.394;10.978;2023-04-09T04:37:48;12.90;;;9.55;;
23384;SDS011;11865;45.394;10.978;2023-04-09T04:40:17;11.82;;;9.27;;
23384;SDS011;11865;45.394;10.978;2023-04-09T04:42:46;15.82;;;9.90;;
23384;SDS011;11865;45.394;10.978;2023-04-09T04:45:15;12.95;;;8.93;;
23384;SDS011;11865;45.394;10.978;2023-04-09T04:47:47;14.18;;;9.18;;
23384;SDS011;11865;45.394;10.978;2023-04-09T04:50:15;12.45;;;8.65;;
23384;SDS011;11865;45.394;10.978;2023-04-09T04:53:02;15.13;;;8.63;;
23384;SDS011;11865;45.394;10.978;2023-04-09T04:55:36;13.70;;;9.07;;
23384;SDS011;11865;45.394;10.978;2023-04-09T04:58:06;14.98;;;8.40;;
23384;SDS011;11865;45.394;10.978;2023-04-09T05:00:42;12.88;;;9.45;;
23384;SDS011;11865;45.394;10.978;2023-04-09T05:03:10;14.27;;;9.32;;
23384;SDS011;11865;45.394;10.978;2023-04-09T05:06:00;11.68;;;8.82;;
23384;SDS011;11865;45.394;10.978;2023-04-09T05:08:35;15.63;;;8.70;;
23384;SDS011;11865;45.394;10.978;2023-04-09T05:11:03;14.38;;;10.18;;
23384;SDS011;11865;45.394;10.978;2023-04-09T05:13:34;18.00;;;9.63;;
23384;SDS011;11865;45.394;10.978;2023-04-09T05:16:05;14.02;;;9.48;;
23384;SDS011;11865;45.394;10.978;2023-04-09T05:18:34;12.85;;;9.25;;
23384;SDS011;11865;45.394;10.978;2023-04-09T05:21:02;14.90;;;10.10;;
23384;SDS011;11865;45.394;10.978;2023-04-09T05:23:31;15.35;;;10.73;;
23384;SDS011;11865;45.394;10.978;2023-04-09T05:25:58;16.05;;;10.18;;
23384;SDS011;11865;45.394;10.978;2023-04-09T05:28:34;18.20;;;10.57;;
23384;SDS011;11865;45.394;10.978;2023-04-09T05:31:09;15.00;;;10.80;;
23384;SDS011;11865;45.394;10.978;2023-04-09T05:33:45;20.90;;;11.63;;
23384;SDS011;11865;45.394;10.978;2023-04-09T05:36:18;16.38;;;10.82;;
23384;SDS011;11865;45.394;10.978;2023-04-09T05:38:46;18.77;;;11.98;;
23384;SDS011;11865;45.394;10.978;2023-04-09T05:41:14;22.88;;;11.80;;
23384;SDS011;11865;45.394;10.978;2023-04-09T05:43:57;16.23;;;11.52;;
23384;SDS011;11865;45.394;10.978;2023-04-09T05:46:27;18.85;;;11.07;;
23384;SDS011;11865;45.394;10.978;2023-04-09T05:48:55;21.98;;;10.93;;
23384;SDS011;11865;45.394;10.978;2023-04-09T05:51:25;12.70;;;10.05;;
23384;SDS011;11865;45.394;10.978;2023-04-09T05:53:54;15.13;;;10.60;;
23384;SDS011;11865;45.394;10.978;2023-04-09T05:56:21;12.68;;;9.45;;
23384;SDS011;11865;45.394;10.978;2023-04-09T05:58:53;14.63;;;9.93;;
23384;SDS011;11865;45.394;10.978;2023-04-09T06:01:20;15.38;;;9.98;;
23384;SDS011;11865;45.394;10.978;2023-04-09T06:03:48;13.63;;;9.98;;
23384;SDS011;11865;45.394;10.978;2023-04-09T06:06:17;12.30;;;9.10;;
23384;SDS011;11865;45.394;10.978;2023-04-09T06:08:44;11.98;;;8.95;;
23384;SDS011;11865;45.394;10.978;2023-04-09T06:11:12;12.77;;;8.32;;
23384;SDS011;11865;45.394;10.978;2023-04-09T06:13:39;12.88;;;8.05;;
23384;SDS011;11865;45.394;10.978;2023-04-09T06:16:07;10.20;;;7.50;;
23384;SDS011;11865;45.394;10.978;2023-04-09T06:18:35;9.45;;;7.32;;
23384;SDS011;11865;45.394;10.978;2023-04-09T06:21:03;10.45;;;7.05;;
23384;SDS011;11865;45.394;10.978;2023-04-09T06:23:33;8.77;;;6.50;;
23384;SDS011;11865;45.394;10.978;2023-04-09T06:26:02;9.25;;;5.97;;
23384;SDS011;11865;45.394;10.978;2023-04-09T06:28:29;6.82;;;5.35;;
23384;SDS011;11865;45.394;10.978;2023-04-09T06:30:57;6.68;;;5.20;;
23384;SDS011;11865;45.394;10.978;2023-04-09T06:33:24;9.35;;;5.28;;
23384;SDS011;11865;45.394;10.978;2023-04-09T06:35:53;5.38;;;4.60;;
23384;SDS011;11865;45.394;10.978;2023-04-09T06:38:21;7.65;;;4.72;;
23384;SDS011;11865;45.394;10.978;2023-04-09T06:40:48;13.65;;;5.43;;
23384;SDS011;11865;45.394;10.978;2023-04-09T06:43:16;7.43;;;4.50;;
23384;SDS011;11865;45.394;10.978;2023-04-09T06:45:48;8.93;;;4.25;;
23384;SDS011;11865;45.394;10.978;2023-04-09T06:48:16;5.22;;;4.28;;
23384;SDS011;11865;45.394;10.978;2023-04-09T06:50:44;9.10;;;5.22;;
23384;SDS011;11865;45.394;10.978;2023-04-09T06:53:11;6.63;;;4.68;;
23384;SDS011;11865;45.394;10.978;2023-04-09T06:55:39;5.03;;;4.10;;
23384;SDS011;11865;45.394;10.978;2023-04-09T06:58:06;8.27;;;5.05;;
23384;SDS011;11865;45.394;10.978;2023-04-09T07:00:34;14.38;;;6.10;;
23384;SDS011;11865;45.394;10.978;2023-04-09T07:03:01;6.35;;;5.00;;
23384;SDS011;11865;45.394;10.978;2023-04-09T07:05:29;6.93;;;5.18;;
23384;SDS011;11865;45.394;10.978;2023-04-09T07:07:57;5.10;;;4.28;;
23384;SDS011;11865;45.394;10.978;2023-04-09T07:10:24;8.10;;;4.82;;
23384;SDS011;11865;45.394;10.978;2023-04-09T07:12:52;4.97;;;4.30;;
23384;SDS011;11865;45.394;10.978;2023-04-09T07:15:19;9.00;;;3.92;;
23384;SDS011;11865;45.394;10.978;2023-04-09T07:17:47;4.10;;;3.22;;
23384;SDS011;11865;45.394;10.978;2023-04-09T07:20:14;4.05;;;2.83;;
23384;SDS011;11865;45.394;10.978;2023-04-09T07:22:42;3.55;;;3.03;;
23384;SDS011;11865;45.394;10.978;2023-04-09T07:25:09;4.38;;;3.10;;
23384;SDS011;11865;45.394;10.978;2023-04-09T07:27:36;6.28;;;3.17;;
23384;SDS011;11865;45.394;10.978;2023-04-09T07:30:04;3.55;;;2.60;;
23384;SDS011;11865;45.394;10.978;2023-04-09T07:32:32;2.97;;;2.63;;
23384;SDS011;11865;45.394;10.978;2023-04-09T07:34:59;2.55;;;2.20;;
23384;SDS011;11865;45.394;10.978;2023-04-09T07:37:28;3.60;;;2.70;;
23384;SDS011;11865;45.394;10.978;2023-04-09T07:39:55;3.80;;;2.58;;
23384;SDS011;11865;45.394;10.978;2023-04-09T07:42:22;3.90;;;3.05;;
23384;SDS011;11865;45.394;10.978;2023-04-09T07:44:50;2.78;;;2.30;;
23384;SDS011;11865;45.394;10.978;2023-04-09T07:47:17;3.55;;;2.65;;
23384;SDS011;11865;45.394;10.978;2023-04-09T07:49:45;5.30;;;2.90;;
23384;SDS011;11865;45.394;10.978;2023-04-09T07:52:12;3.22;;;2.78;;
23384;SDS011;11865;45.394;10.978;2023-04-09T07:54:40;4.32;;;2.40;;
23384;SDS011;11865;45.394;10.978;2023-04-09T07:57:07;2.78;;;2.30;;
23384;SDS011;11865;45.394;10.978;2023-04-09T07:59:35;5.70;;;2.75;;
23384;SDS011;11865;45.394;10.978;2023-04-09T08:02:02;2.80;;;2.50;;
23384;SDS011;11865;45.394;10.978;2023-04-09T08:04:30;8.48;;;2.80;;
23384;SDS011;11865;45.394;10.978;2023-04-09T08:06:58;4.57;;;2.60;;
23384;SDS011;11865;45.394;10.978;2023-04-09T08:09:25;12.10;;;3.92;;
23384;SDS011;11865;45.394;10.978;2023-04-09T08:11:53;3.67;;;2.60;;
23384;SDS011;11865;45.394;10.978;2023-04-09T08:14:20;4.72;;;2.40;;
23384;SDS011;11865;45.394;10.978;2023-04-09T08:16:48;2.40;;;2.17;;
23384;SDS011;11865;45.394;10.978;2023-04-09T08:19:16;2.80;;;2.30;;
23384;SDS011;11865;45.394;10.978;2023-04-09T08:21:45;6.72;;;2.30;;
23384;SDS011;11865;45.394;10.978;2023-04-09T08:24:15;2.75;;;2.17;;
23384;SDS011;11865;45.394;10.978;2023-04-09T08:26:43;3.08;;;2.50;;
23384;SDS011;11865;45.394;10.978;2023-04-09T08:29:11;2.15;;;1.90;;
23384;SDS011;11865;45.394;10.978;2023-04-09T08:31:41;7.00;;;3.22;;
23384;SDS011;11865;45.394;10.978;2023-04-09T08:34:08;2.47;;;2.20;;
23384;SDS011;11865;45.394;10.978;2023-04-09T08:36:36;5.50;;;2.85;;
23384;SDS011;11865;45.394;10.978;2023-04-09T08:39:03;4.45;;;2.50;;
23384;SDS011;11865;45.394;10.978;2023-04-09T08:41:31;2.38;;;2.08;;
23384;SDS011;11865;45.394;10.978;2023-04-09T08:43:59;2.67;;;2.35;;
23384;SDS011;11865;45.394;10.978;2023-04-09T08:46:27;5.63;;;3.20;;
23384;SDS011;11865;45.394;10.978;2023-04-09T08:48:55;8.45;;;2.75;;
23384;SDS011;11865;45.394;10.978;2023-04-09T08:51:23;3.03;;;2.72;;
23384;SDS011;11865;45.394;10.978;2023-04-09T08:56:27;4.72;;;3.05;;
23384;SDS011;11865;45.394;10.978;2023-04-09T08:58:55;5.10;;;2.80;;
23384;SDS011;11865;45.394;10.978;2023-04-09T09:01:24;7.82;;;3.42;;
23384;SDS011;11865;45.394;10.978;2023-04-09T09:03:59;4.82;;;2.58;;
23384;SDS011;11865;45.394;10.978;2023-04-09T09:06:28;4.55;;;2.85;;
23384;SDS011;11865;45.394;10.978;2023-04-09T09:11:33;3.28;;;2.90;;
23384;SDS011;11865;45.394;10.978;2023-04-09T09:14:03;10.57;;;3.88;;
23384;SDS011;11865;45.394;10.978;2023-04-09T09:16:33;10.77;;;4.25;;
23384;SDS011;11865;45.394;10.978;2023-04-09T09:19:01;7.75;;;3.80;;
23384;SDS011;11865;45.394;10.978;2023-04-09T09:21:29;4.15;;;3.22;;
23384;SDS011;11865;45.394;10.978;2023-04-09T09:23:56;3.70;;;3.20;;
23384;SDS011;11865;45.394;10.978;2023-04-09T09:26:25;4.15;;;3.75;;
23384;SDS011;11865;45.394;10.978;2023-04-09T09:28:54;5.28;;;3.47;;
23384;SDS011;11865;45.394;10.978;2023-04-09T09:31:26;10.98;;;5.45;;
23384;SDS011;11865;45.394;10.978;2023-04-09T09:33:53;4.28;;;3.88;;
23384;SDS011;11865;45.394;10.978;2023-04-09T09:36:31;7.18;;;3.75;;
23384;SDS011;11865;45.394;10.978;2023-04-09T09:39:00;3.75;;;3.15;;
23384;SDS011;11865;45.394;10.978;2023-04-09T09:41:31;5.03;;;3.80;;
23384;SDS011;11865;45.394;10.978;2023-04-09T09:43:58;6.15;;;3.95;;
23384;SDS011;11865;45.394;10.978;2023-04-09T09:46:26;4.43;;;3.22;;
23384;SDS011;11865;45.394;10.978;2023-04-09T09:48:56;3.90;;;3.47;;
23384;SDS011;11865;45.394;10.978;2023-04-09T09:51:24;5.05;;;3.67;;
23384;SDS011;11865;45.394;10.978;2023-04-09T09:53:55;5.10;;;3.50;;
23384;SDS011;11865;45.394;10.978;2023-04-09T09:56:24;7.05;;;3.40;;
23384;SDS011;11865;45.394;10.978;2023-04-09T09:59:19;6.63;;;4.03;;
23384;SDS011;11865;45.394;10.978;2023-04-09T10:01:49;9.57;;;4.00;;
23384;SDS011;11865;45.394;10.978;2023-04-09T10:04:26;8.25;;;3.75;;
23384;SDS011;11865;45.394;10.978;2023-04-09T10:06:55;5.15;;;3.42;;
23384;SDS011;11865;45.394;10.978;2023-04-09T10:09:24;4.32;;;3.47;;
23384;SDS011;11865;45.394;10.978;2023-04-09T10:11:53;4.38;;;3.88;;
23384;SDS011;11865;45.394;10.978;2023-04-09T10:14:22;5.28;;;4.47;;
23384;SDS011;11865;45.394;10.978;2023-04-09T10:16:51;5.80;;;3.90;;
23384;SDS011;11865;45.394;10.978;2023-04-09T10:19:19;5.00;;;3.85;;
23384;SDS011;11865;45.394;10.978;2023-04-09T10:21:52;6.88;;;4.03;;
23384;SDS011;11865;45.394;10.978;2023-04-09T10:24:27;6.25;;;3.70;;
23384;SDS011;11865;45.394;10.978;2023-04-09T10:26:56;4.28;;;3.88;;
23384;SDS011;11865;45.394;10.978;2023-04-09T10:29:42;4.68;;;3.60;;
23384;SDS011;11865;45.394;10.978;2023-04-09T10:32:12;4.40;;;3.80;;
23384;SDS011;11865;45.394;10.978;2023-04-09T10:34:46;5.38;;;3.88;;
23384;SDS011;11865;45.394;10.978;2023-04-09T10:37:20;4.72;;;3.78;;
23384;SDS011;11865;45.394;10.978;2023-04-09T10:39:50;4.15;;;3.33;;
23384;SDS011;11865;45.394;10.978;2023-04-09T10:42:19;8.15;;;4.28;;
23384;SDS011;11865;45.394;10.978;2023-04-09T10:47:52;13.20;;;5.85;;
23384;SDS011;11865;45.394;10.978;2023-04-09T10:50:20;5.55;;;3.90;;
23384;SDS011;11865;45.394;10.978;2023-04-09T10:52:53;4.55;;;3.55;;
23384;SDS011;11865;45.394;10.978;2023-04-09T10:55:33;7.00;;;3.63;;
23384;SDS011;11865;45.394;10.978;2023-04-09T10:58:02;5.40;;;3.97;;
23384;SDS011;11865;45.394;10.978;2023-04-09T11:00:32;5.05;;;3.80;;
23384;SDS011;11865;45.394;10.978;2023-04-09T11:05:50;4.40;;;3.20;;
23384;SDS011;11865;45.394;10.978;2023-04-09T11:08:26;4.90;;;4.07;;
23384;SDS011;11865;45.394;10.978;2023-04-09T11:10:58;5.15;;;3.75;;
23384;SDS011;11865;45.394;10.978;2023-04-09T11:13:28;4.28;;;3.88;;
23384;SDS011;11865;45.394;10.978;2023-04-09T11:15:57;5.30;;;3.83;;
23384;SDS011;11865;45.394;10.978;2023-04-09T11:18:26;7.65;;;3.80;;
23384;SDS011;11865;45.394;10.978;2023-04-09T11:20:56;6.43;;;4.18;;
23384;SDS011;11865;45.394;10.978;2023-04-09T11:23:25;5.55;;;3.85;;
23384;SDS011;11865;45.394;10.978;2023-04-09T11:25:53;4.95;;;3.78;;
23384;SDS011;11865;45.394;10.978;2023-04-09T11:28:21;6.63;;;3.92;;
23384;SDS011;11865;45.394;10.978;2023-04-09T11:30:49;5.95;;;4.00;;
23384;SDS011;11865;45.394;10.978;2023-04-09T11:33:17;4.28;;;3.88;;
23384;SDS011;11865;45.394;10.978;2023-04-09T11:35:46;6.65;;;4.10;;
23384;SDS011;11865;45.394;10.978;2023-04-09T11:38:14;6.05;;;4.25;;
23384;SDS011;11865;45.394;10.978;2023-04-09T11:40:42;7.60;;;4.07;;
23384;SDS011;11865;45.394;10.978;2023-04-09T11:43:17;4.10;;;3.72;;
23384;SDS011;11865;45.394;10.978;2023-04-09T11:45:47;6.55;;;4.15;;
23384;SDS011;11865;45.394;10.978;2023-04-09T11:48:15;4.53;;;4.03;;
23384;SDS011;11865;45.394;10.978;2023-04-09T11:50:47;5.18;;;4.35;;
23384;SDS011;11865;45.394;10.978;2023-04-09T11:53:16;8.93;;;4.78;;
23384;SDS011;11865;45.394;10.978;2023-04-09T11:55:45;8.32;;;4.82;;
23384;SDS011;11865;45.394;10.978;2023-04-09T11:58:14;5.85;;;4.15;;
23384;SDS011;11865;45.394;10.978;2023-04-09T12:00:41;5.13;;;4.53;;
23384;SDS011;11865;45.394;10.978;2023-04-09T12:03:09;6.00;;;4.18;;
23384;SDS011;11865;45.394;10.978;2023-04-09T12:05:37;6.38;;;4.10;;
23384;SDS011;11865;45.394;10.978;2023-04-09T12:08:09;5.25;;;4.28;;
23384;SDS011;11865;45.394;10.978;2023-04-09T12:10:36;6.68;;;4.28;;
23384;SDS011;11865;45.394;10.978;2023-04-09T12:13:05;5.47;;;3.78;;
23384;SDS011;11865;45.394;10.978;2023-04-09T12:15:36;6.70;;;4.70;;
23384;SDS011;11865;45.394;10.978;2023-04-09T12:18:07;5.25;;;4.15;;
23384;SDS011;11865;45.394;10.978;2023-04-09T12:20:36;5.72;;;4.63;;
23384;SDS011;11865;45.394;10.978;2023-04-09T12:23:05;8.35;;;5.18;;
23384;SDS011;11865;45.394;10.978;2023-04-09T12:25:36;6.18;;;4.75;;
23384;SDS011;11865;45.394;10.978;2023-04-09T12:28:06;4.68;;;3.92;;
23384;SDS011;11865;45.394;10.978;2023-04-09T12:30:34;5.68;;;4.53;;
23384;SDS011;11865;45.394;10.978;2023-04-09T12:33:02;5.72;;;4.60;;
23384;SDS011;11865;45.394;10.978;2023-04-09T12:35:31;6.07;;;4.82;;
23384;SDS011;11865;45.394;10.978;2023-04-09T12:38:00;5.13;;;3.97;;
23384;SDS011;11865;45.394;10.978;2023-04-09T12:40:27;4.18;;;3.78;;
23384;SDS011;11865;45.394;10.978;2023-04-09T12:42:55;4.55;;;3.67;;
23384;SDS011;11865;45.394;10.978;2023-04-09T12:45:22;5.13;;;4.57;;
23384;SDS011;11865;45.394;10.978;2023-04-09T12:47:50;5.50;;;4.32;;
23384;SDS011;11865;45.394;10.978;2023-04-09T12:50:17;7.50;;;5.10;;
23384;SDS011;11865;45.394;10.978;2023-04-09T12:52:45;6.72;;;4.35;;
23384;SDS011;11865;45.394;10.978;2023-04-09T12:55:13;6.53;;;4.22;;
23384;SDS011;11865;45.394;10.978;2023-04-09T12:57:44;5.18;;;4.38;;
23384;SDS011;11865;45.394;10.978;2023-04-09T13:00:14;4.85;;;3.90;;
23384;SDS011;11865;45.394;10.978;2023-04-09T13:02:42;6.65;;;4.45;;
23384;SDS011;11865;45.394;10.978;2023-04-09T13:05:09;6.20;;;4.75;;
23384;SDS011;11865;45.394;10.978;2023-04-09T13:07:37;5.45;;;4.63;;
23384;SDS011;11865;45.394;10.978;2023-04-09T13:10:08;8.35;;;4.25;;
23384;SDS011;11865;45.394;10.978;2023-04-09T13:12:35;5.75;;;4.40;;
23384;SDS011;11865;45.394;10.978;2023-04-09T13:15:03;5.80;;;4.60;;
23384;SDS011;11865;45.394;10.978;2023-04-09T13:17:31;5.22;;;4.57;;
23384;SDS011;11865;45.394;10.978;2023-04-09T13:19:58;8.40;;;5.55;;
23384;SDS011;11865;45.394;10.978;2023-04-09T13:22:25;5.78;;;4.72;;
23384;SDS011;11865;45.394;10.978;2023-04-09T13:24:53;7.03;;;4.40;;
23384;SDS011;11865;45.394;10.978;2023-04-09T13:27:20;5.85;;;4.20;;
23384;SDS011;11865;45.394;10.978;2023-04-09T13:29:48;4.97;;;4.32;;
23384;SDS011;11865;45.394;10.978;2023-04-09T13:32:15;12.13;;;5.07;;
23384;SDS011;11865;45.394;10.978;2023-04-09T13:34:44;7.18;;;4.45;;
23384;SDS011;11865;45.394;10.978;2023-04-09T13:37:12;4.80;;;4.15;;
23384;SDS011;11865;45.394;10.978;2023-04-09T13:39:39;13.85;;;5.30;;
23384;SDS011;11865;45.394;10.978;2023-04-09T13:42:07;5.97;;;4.10;;
23384;SDS011;11865;45.394;10.978;2023-04-09T13:44:40;6.10;;;4.15;;
23384;SDS011;11865;45.394;10.978;2023-04-09T13:47:10;4.90;;;4.03;;
23384;SDS011;11865;45.394;10.978;2023-04-09T13:49:39;5.55;;;4.57;;
23384;SDS011;11865;45.394;10.978;2023-04-09T13:52:07;4.60;;;3.90;;
23384;SDS011;11865;45.394;10.978;2023-04-09T13:54:34;4.18;;;3.78;;
23384;SDS011;11865;45.394;10.978;2023-04-09T13:57:02;5.22;;;3.75;;
23384;SDS011;11865;45.394;10.978;2023-04-09T13:59:30;4.82;;;4.32;;
23384;SDS011;11865;45.394;10.978;2023-04-09T14:01:57;6.38;;;4.35;;
23384;SDS011;11865;45.394;10.978;2023-04-09T14:04:25;4.55;;;3.58;;
23384;SDS011;11865;45.394;10.978;2023-04-09T14:06:53;6.32;;;3.92;;
23384;SDS011;11865;45.394;10.978;2023-04-09T14:09:20;5.60;;;4.32;;
23384;SDS011;11865;45.394;10.978;2023-04-09T14:11:48;7.70;;;4.25;;
23384;SDS011;11865;45.394;10.978;2023-04-09T14:14:15;6.70;;;4.40;;
23384;SDS011;11865;45.394;10.978;2023-04-09T14:16:43;4.60;;;3.63;;
23384;SDS011;11865;45.394;10.978;2023-04-09T14:19:11;3.90;;;3.47;;
23384;SDS011;11865;45.394;10.978;2023-04-09T14:21:39;5.45;;;3.80;;
23384;SDS011;11865;45.394;10.978;2023-04-09T14:24:06;4.88;;;3.50;;
23384;SDS011;11865;45.394;10.978;2023-04-09T14:26:34;8.18;;;4.15;;
23384;SDS011;11865;45.394;10.978;2023-04-09T14:29:02;5.30;;;3.92;;
23384;SDS011;11865;45.394;10.978;2023-04-09T14:31:29;3.97;;;3.58;;
23384;SDS011;11865;45.394;10.978;2023-04-09T14:33:57;5.68;;;3.70;;
23384;SDS011;11865;45.394;10.978;2023-04-09T14:36:24;7.70;;;4.00;;
23384;SDS011;11865;45.394;10.978;2023-04-09T14:38:53;5.35;;;4.13;;
23384;SDS011;11865;45.394;10.978;2023-04-09T14:41:23;4.95;;;3.70;;
23384;SDS011;11865;45.394;10.978;2023-04-09T14:43:51;6.20;;;3.85;;
23384;SDS011;11865;45.394;10.978;2023-04-09T14:46:19;5.25;;;3.60;;
23384;SDS011;11865;45.394;10.978;2023-04-09T14:48:47;6.28;;;3.50;;
23384;SDS011;11865;45.394;10.978;2023-04-09T14:51:15;5.15;;;3.30;;
23384;SDS011;11865;45.394;10.978;2023-04-09T14:53:42;4.95;;;3.50;;
23384;SDS011;11865;45.394;10.978;2023-04-09T14:56:10;4.22;;;3.83;;
23384;SDS011;11865;45.394;10.978;2023-04-09T14:58:37;5.97;;;3.60;;
23384;SDS011;11865;45.394;10.978;2023-04-09T15:01:05;8.52;;;4.30;;
23384;SDS011;11865;45.394;10.978;2023-04-09T15:03:32;7.13;;;4.07;;
23384;SDS011;11865;45.394;10.978;2023-04-09T15:06:00;4.15;;;3.35;;